LHBPLIRA

Guest
Details From LHBP - Budapest Ferihegy
To LIRA - Ciampino
Flight Number -
Tags Generated
Created
Modified
Stats Distance 441 nm / 817 km
Max Altitude 0 ft / 0 m
Waypoints 4
Social Downloads 5
Likes 0
Share VATSIM

Download

Looking for another format? Having issues loading an existing format? Contact us
Advertisement - Login to hide

Notes

Generated

Route

LHBP KOREX R1815 LIRA

ID Type Via Altitude Latitude Longitude Leg Dist Tot Dist Heading (true) Name
O LHBP APT - 0 ft / 0 m 47.44871˚ 19.22076˚ - 0 nm - -
KOREX FIX - 0 ft / 0 m 44.77111˚ 15.76917˚ 215 nm 215 nm 223° / 221° -
R1815 FIX - 0 ft / 0 m 41.80806˚ 12.58883˚ 225 nm 441 nm 219° / 217° -
O LIRA APT - 0 ft / 0 m 41.80806˚ 12.58883˚ 0 nm 441 nm 0° / 180° -

Altitude Profile

Advertisement - Login to hide

Weather


0- 5 10 15 20 25 30 35+ Temperature / ° C

Clouds and Precipitation
Forecast for 2018-05-28 00:00 UTC. Updated 7 hours ago

Ground ~20,000 ft ~40,000 ft Winds

LHBP

Details ICAO LHBP (BUD)
Name Ferihegy (Budapest)
Region Hungary
Timezone Europe/Budapest (UTC+2.0)
Stats Elevation 495 ft / 151 m (AMSL)
Location 47.435292° 19.265792°
Runways 3
Magnetic Variation 4.816° E

METAR

Not found

TAF

TAF TAF LHBP 272315Z 2800/2824 VRB03KT CAVOK BECMG 2806/2809 06008KT TEMPO 2815/2820 VRB15G25KT 5000 TSRA FEW060CB BECMG 2821/2823 VRB03KT

Decode

Departure Runways

ID Width Length Bearing (true) Bearing (mag) Surface Threshold Offset Overrun Length
13 250 ft / 76 m 6,000 ft / 1,829 m 132.54° 127.72° Unknown 0 ft / 0 m 0 ft / 0 m
13L 196 ft / 60 m 12,487 ft / 3,806 m 132.54° 127.72° Asphalt 0 ft / 0 m 200 ft / 61 m
13R 196 ft / 60 m 10,145 ft / 3,092 m 132.49° 127.67° Asphalt 0 ft / 0 m 197 ft / 60 m
31 250 ft / 76 m 6,000 ft / 1,829 m 312.55° 307.73° Unknown 0 ft / 0 m 0 ft / 0 m
31L 196 ft / 60 m 10,145 ft / 3,092 m 312.51° 307.69° Asphalt 0 ft / 0 m 197 ft / 60 m
31R 196 ft / 60 m 12,487 ft / 3,806 m 312.56° 307.74° Asphalt 0 ft / 0 m 197 ft / 60 m

LIRA

Details ICAO LIRA (CIA)
Name CIAMPINO
Region Italy
Timezone Europe/Rome (UTC+2.0)
Stats Elevation 427 ft / 130 m (AMSL)
Location 41.799228° 12.594917°
Runways 1
Magnetic Variation 3.105° E

METAR

Not found

TAF

TAF LIRA 272300Z 2800/2824 VRB04KT 9999 SCT030 BECMG 2810/2812 24010KT BECMG 2816/2818 VRB05KT

Decode

Destination Runways

ID Width Length Bearing (true) Bearing (mag) Surface Threshold Offset Overrun Length
15 154 ft / 47 m 7,246 ft / 2,209 m 152.79° 149.69° Asphalt 0 ft / 0 m 0 ft / 0 m
33 154 ft / 47 m 7,246 ft / 2,209 m 332.80° 329.70° Asphalt 0 ft / 0 m 0 ft / 0 m

Approach Navaids

Runway Type Ident Frequency Range Bearing (true) Bearing (mag) Slope Elevation
15 Localiser CIA 109.90 MHz 18 nm / 33 km 152.81° 149.71° - 426 ft / 130 m (AMSL)
15 Glidescope CIA 109.90 MHz 10 nm / 19 km 152.79° 149.69° 3.00° 384 ft / 117 m (AMSL)

Popular Alternatives